Time;durP1;ratioP1;P1;durP2;ratioP2;P2;SDS_P1;SDS_P2;PMS_P1;PMS_P2;Temp;Humidity;BMP_temperature;BMP_pressure;BME280_temperature;BME280_humidity;BME280_pressure;Samples;Min_cycle;Max_cycle;Signal;HPM_P1;HPM_P2
2023/08/22 00:00:16;;;;;;;0.00;0.00;;;18.60;80.40;;;;;;5028241;28;20391;-68
2023/08/22 00:02:42;;;;;;;0.00;0.00;;;18.70;80.40;;;;;;5025883;28;20045;-69
2023/08/22 00:05:08;;;;;;;0.00;0.00;;;18.70;80.10;;;;;;5028232;28;20413;-68
2023/08/22 00:07:34;;;;;;;0.00;0.00;;;18.60;80.10;;;;;;5028377;28;20045;-68
2023/08/22 00:09:59;;;;;;;0.00;0.00;;;18.70;80.00;;;;;;5026595;28;20045;-68
2023/08/22 00:12:25;;;;;;;0.00;0.00;;;18.60;80.10;;;;;;5028931;28;20044;-68
2023/08/22 00:14:51;;;;;;;0.00;0.00;;;18.60;80.20;;;;;;5029835;28;20388;-68
2023/08/22 00:17:20;;;;;;;0.00;0.00;;;18.70;80.10;;;;;;5028803;28;20049;-68
2023/08/22 00:19:46;;;;;;;0.00;0.00;;;18.70;80.10;;;;;;5026260;28;20494;-68
2023/08/22 00:22:11;;;;;;;0.00;0.00;;;18.70;80.30;;;;;;5028087;28;20058;-71
2023/08/22 00:24:38;;;;;;;0.00;0.00;;;18.70;80.30;;;;;;5028605;28;20033;-68
2023/08/22 00:27:04;;;;;;;0.00;0.00;;;18.70;80.80;;;;;;5028958;28;20049;-68
2023/08/22 00:29:30;;;;;;;0.00;0.00;;;18.70;80.60;;;;;;5027821;28;20058;-68
2023/08/22 00:31:57;;;;;;;0.00;0.00;;;18.70;80.70;;;;;;5028930;28;20509;-70
2023/08/22 00:34:23;;;;;;;0.00;0.00;;;18.70;80.70;;;;;;5028286;28;20065;-68
2023/08/22 00:36:48;;;;;;;0.00;0.00;;;18.70;80.70;;;;;;5027863;28;20568;-70
2023/08/22 00:39:14;;;;;;;0.00;0.00;;;18.70;81.10;;;;;;5026730;28;20144;-69
2023/08/22 00:41:40;;;;;;;0.00;0.00;;;18.60;81.20;;;;;;5027844;28;20049;-71
2023/08/22 00:44:06;;;;;;;0.00;0.00;;;18.60;81.20;;;;;;5027615;28;20041;-68
2023/08/22 00:46:32;;;;;;;0.00;0.00;;;18.70;81.20;;;;;;5028967;28;20491;-69
2023/08/22 00:48:58;;;;;;;0.00;0.00;;;18.60;81.20;;;;;;5029359;28;20043;-69
2023/08/22 00:51:24;;;;;;;0.00;0.00;;;18.70;81.40;;;;;;5024983;28;20045;-70
2023/08/22 00:53:49;;;;;;;0.00;0.00;;;18.60;81.50;;;;;;5025406;28;20039;-69
2023/08/22 00:56:16;;;;;;;0.00;0.00;;;18.70;81.70;;;;;;5028627;28;20046;-69
2023/08/22 00:58:42;;;;;;;0.00;0.00;;;18.70;81.40;;;;;;5026843;28;20614;-69
2023/08/22 01:01:08;;;;;;;0.00;0.00;;;18.70;81.20;;;;;;5027940;28;20402;-69
2023/08/22 01:03:36;;;;;;;0.10;0.10;;;18.70;81.10;;;;;;5027453;28;20033;-69
2023/08/22 01:06:25;;;;;;;0.00;0.00;;;18.60;81.10;;;;;;5029615;28;20037;-69
2023/08/22 01:08:59;;;;;;;0.00;0.00;;;18.60;81.10;;;;;;5032309;28;20045;-71
2023/08/22 01:11:34;;;;;;;0.00;0.00;;;18.60;81.20;;;;;;5030199;28;20061;-68
2023/08/22 01:14:04;;;;;;;0.00;0.00;;;18.60;81.10;;;;;;5032099;28;20119;-70
2023/08/22 01:16:30;;;;;;;0.00;0.00;;;18.60;81.30;;;;;;5032772;28;20106;-70
2023/08/22 01:19:00;;;;;;;0.00;0.00;;;18.60;81.40;;;;;;5032925;28;20100;-72
2023/08/22 01:21:26;;;;;;;0.00;0.00;;;18.60;81.30;;;;;;5030189;28;20052;-71
2023/08/22 01:23:52;;;;;;;0.00;0.00;;;18.50;81.40;;;;;;5013255;28;20041;-70
2023/08/22 01:26:18;;;;;;;0.00;0.00;;;18.60;81.40;;;;;;5029967;28;20063;-71
2023/08/22 01:28:46;;;;;;;0.00;0.00;;;18.50;81.60;;;;;;5031001;28;20503;-70
2023/08/22 01:31:20;;;;;;;0.00;0.00;;;18.50;81.70;;;;;;5032168;28;20049;-70
2023/08/22 01:34:08;;;;;;;0.00;0.00;;;18.50;81.50;;;;;;5030647;28;20087;-69
2023/08/22 01:36:36;;;;;;;0.00;0.00;;;18.50;81.50;;;;;;5032606;28;20041;-69
2023/08/22 01:39:07;;;;;;;0.00;0.00;;;18.50;81.40;;;;;;5031851;28;20222;-69
2023/08/22 01:41:33;;;;;;;0.43;0.30;;;18.50;81.50;;;;;;5031259;28;20048;-69
2023/08/22 01:44:00;;;;;;;0.00;0.00;;;18.50;81.60;;;;;;5013717;28;20037;-71
2023/08/22 01:46:25;;;;;;;0.00;0.00;;;18.50;81.70;;;;;;5031646;28;20045;-69
2023/08/22 01:48:51;;;;;;;0.00;0.00;;;18.40;81.60;;;;;;5030957;28;20437;-69
2023/08/22 01:51:17;;;;;;;0.00;0.00;;;18.40;81.80;;;;;;5032351;28;20076;-69
2023/08/22 01:53:42;;;;;;;0.03;0.03;;;18.40;82.30;;;;;;5031762;28;20487;-70
2023/08/22 01:56:08;;;;;;;0.00;0.00;;;18.40;82.70;;;;;;5029296;28;20124;-69
2023/08/22 01:58:34;;;;;;;0.00;0.00;;;18.40;82.60;;;;;;5030905;28;20065;-72
2023/08/22 02:01:11;;;;;;;0.00;0.00;;;18.30;82.40;;;;;;5031523;28;20038;-69
2023/08/22 02:03:37;;;;;;;0.00;0.00;;;18.30;82.20;;;;;;5029695;28;20054;-70
2023/08/22 02:06:03;;;;;;;0.00;0.00;;;18.30;82.20;;;;;;5031715;28;20045;-70
2023/08/22 02:08:28;;;;;;;0.03;0.03;;;18.30;82.20;;;;;;5031764;28;20033;-70
2023/08/22 02:10:54;;;;;;;0.00;0.00;;;18.30;82.30;;;;;;5031367;28;20042;-69
2023/08/22 02:13:20;;;;;;;0.00;0.00;;;18.20;82.10;;;;;;5030828;28;20060;-69
2023/08/22 02:15:45;;;;;;;0.00;0.00;;;18.30;82.10;;;;;;5030878;28;20617;-69
2023/08/22 02:18:11;;;;;;;0.00;0.00;;;18.10;82.10;;;;;;5030034;28;20084;-70
2023/08/22 02:20:36;;;;;;;0.00;0.00;;;18.10;82.10;;;;;;5030939;28;20081;-69
2023/08/22 02:23:02;;;;;;;0.00;0.00;;;18.10;82.20;;;;;;5028816;28;20056;-69
2023/08/22 02:25:29;;;;;;;0.00;0.00;;;18.10;82.40;;;;;;5027418;28;21092;-69
2023/08/22 02:27:55;;;;;;;0.00;0.00;;;18.10;82.50;;;;;;5029121;28;20045;-69
2023/08/22 02:30:21;;;;;;;0.00;0.00;;;18.10;82.80;;;;;;5030342;28;20449;-69
2023/08/22 02:32:47;;;;;;;0.00;0.00;;;18.10;82.90;;;;;;5029441;28;20037;-73
2023/08/22 02:35:13;;;;;;;0.00;0.00;;;18.00;82.80;;;;;;5028382;28;20510;-69
2023/08/22 02:37:39;;;;;;;0.00;0.00;;;18.00;82.90;;;;;;5030061;28;20037;-70
2023/08/22 02:40:08;;;;;;;0.00;0.00;;;18.00;83.00;;;;;;5029013;28;20033;-69
2023/08/22 02:42:33;;;;;;;0.00;0.00;;;18.00;83.00;;;;;;5028972;28;20478;-70
2023/08/22 02:44:59;;;;;;;0.00;0.00;;;17.90;83.10;;;;;;5031094;28;20052;-70
2023/08/22 02:47:25;;;;;;;0.00;0.00;;;17.90;83.30;;;;;;5029941;28;20057;-70
2023/08/22 02:49:50;;;;;;;0.00;0.00;;;17.90;83.50;;;;;;5030493;28;20037;-70
2023/08/22 02:52:16;;;;;;;0.00;0.00;;;17.90;83.60;;;;;;5029836;28;20140;-70
2023/08/22 02:54:42;;;;;;;0.00;0.00;;;17.90;83.60;;;;;;5030772;28;20068;-69
2023/08/22 02:57:07;;;;;;;0.00;0.00;;;17.90;83.40;;;;;;5029432;28;20037;-70
2023/08/22 02:59:33;;;;;;;0.00;0.00;;;17.80;83.70;;;;;;5031130;28;20333;-69
2023/08/22 03:01:59;;;;;;;0.00;0.00;;;17.80;83.50;;;;;;5028677;28;20042;-70
2023/08/22 03:04:24;;;;;;;0.00;0.00;;;17.90;83.40;;;;;;5028496;28;20041;-68
2023/08/22 03:06:50;;;;;;;0.00;0.00;;;17.90;83.30;;;;;;5029798;28;20048;-70
2023/08/22 03:09:16;;;;;;;0.00;0.00;;;17.80;83.30;;;;;;5031123;28;20045;-69
2023/08/22 03:11:41;;;;;;;0.00;0.00;;;17.80;83.30;;;;;;5027264;28;20462;-73
2023/08/22 03:14:07;;;;;;;0.00;0.00;;;17.80;83.70;;;;;;5028785;28;20085;-70
2023/08/22 03:16:33;;;;;;;0.00;0.00;;;17.80;83.70;;;;;;5030133;28;20055;-69
2023/08/22 03:18:58;;;;;;;0.00;0.00;;;17.80;83.60;;;;;;5030117;28;20046;-69
2023/08/22 03:21:24;;;;;;;0.00;0.00;;;17.80;83.50;;;;;;5029123;28;20522;-70
2023/08/22 03:23:50;;;;;;;0.00;0.00;;;17.70;83.50;;;;;;5029818;28;20037;-70
2023/08/22 03:26:15;;;;;;;0.00;0.00;;;17.70;83.80;;;;;;5012111;28;20387;-70
2023/08/22 03:28:41;;;;;;;0.00;0.00;;;17.80;84.20;;;;;;5028048;28;20077;-69
2023/08/22 03:31:07;;;;;;;0.00;0.00;;;17.80;84.60;;;;;;5029183;28;20429;-69
2023/08/22 03:33:33;;;;;;;0.00;0.00;;;17.70;84.70;;;;;;5029599;28;20045;-71
2023/08/22 03:35:59;;;;;;;0.00;0.00;;;17.70;84.60;;;;;;5027321;28;20073;-70
2023/08/22 03:38:26;;;;;;;0.00;0.00;;;17.70;84.60;;;;;;5029114;28;20060;-70
2023/08/22 03:40:53;;;;;;;0.00;0.00;;;17.70;84.60;;;;;;5030648;28;20374;-69
2023/08/22 03:43:19;;;;;;;0.00;0.00;;;17.70;84.40;;;;;;5029064;28;20052;-69
2023/08/22 03:45:45;;;;;;;0.00;0.00;;;17.60;84.30;;;;;;5029897;28;20045;-69
2023/08/22 03:48:11;;;;;;;0.00;0.00;;;17.70;84.50;;;;;;5029817;28;20056;-69
2023/08/22 03:50:39;;;;;;;0.00;0.00;;;17.70;84.30;;;;;;5030044;28;20049;-70
2023/08/22 03:53:05;;;;;;;0.00;0.00;;;17.70;84.40;;;;;;5028569;28;20458;-70
2023/08/22 03:55:31;;;;;;;0.00;0.00;;;17.70;84.50;;;;;;5030226;28;20077;-71
2023/08/22 03:57:58;;;;;;;0.00;0.00;;;17.70;84.50;;;;;;5028090;28;20095;-69
2023/08/22 04:00:25;;;;;;;0.00;0.00;;;17.70;84.40;;;;;;5027063;28;21334;-69
2023/08/22 04:02:54;;;;;;;0.00;0.00;;;17.80;84.30;;;;;;5029040;28;20068;-69
2023/08/22 04:05:21;;;;;;;0.00;0.00;;;17.70;84.30;;;;;;5026864;28;20103;-70
2023/08/22 04:07:46;;;;;;;0.00;0.00;;;17.70;84.20;;;;;;5010381;28;20057;-69
2023/08/22 04:10:12;;;;;;;0.00;0.00;;;17.60;84.10;;;;;;5026529;28;20047;-69
2023/08/22 04:12:38;;;;;;;0.00;0.00;;;17.60;84.10;;;;;;5028986;28;20566;-69
2023/08/22 04:15:03;;;;;;;0.00;0.00;;;17.70;84.10;;;;;;5027762;28;20048;-69
2023/08/22 04:17:29;;;;;;;0.00;0.00;;;17.60;84.10;;;;;;5029286;28;20046;-70
2023/08/22 04:19:55;;;;;;;0.00;0.00;;;17.60;84.20;;;;;;5028380;28;20494;-71
2023/08/22 04:22:20;;;;;;;0.00;0.00;;;17.60;84.10;;;;;;5011806;28;20133;-69
2023/08/22 04:24:46;;;;;;;0.00;0.00;;;17.60;84.10;;;;;;5028513;28;20047;-69
2023/08/22 04:27:11;;;;;;;0.00;0.00;;;17.60;84.10;;;;;;5026876;28;20140;-70
2023/08/22 04:29:37;;;;;;;0.00;0.00;;;17.60;84.10;;;;;;5024732;28;20474;-71
2023/08/22 04:32:03;;;;;;;0.00;0.00;;;17.60;84.10;;;;;;5024210;28;20149;-69
2023/08/22 04:34:29;;;;;;;0.00;0.00;;;17.50;84.10;;;;;;5023951;28;20084;-69
2023/08/22 04:36:55;;;;;;;0.00;0.00;;;17.50;84.00;;;;;;5023900;28;20076;-70
2023/08/22 04:39:20;;;;;;;0.00;0.00;;;17.50;84.00;;;;;;5027093;28;20096;-69
2023/08/22 04:41:46;;;;;;;0.00;0.00;;;17.50;84.10;;;;;;5027547;28;20045;-69
2023/08/22 04:44:12;;;;;;;0.00;0.00;;;17.50;84.10;;;;;;5032136;28;20490;-70
2023/08/22 04:46:37;;;;;;;0.00;0.00;;;17.50;84.20;;;;;;5032426;28;20038;-70
2023/08/22 04:49:03;;;;;;;0.00;0.00;;;17.50;84.10;;;;;;5003128;28;20061;-70
2023/08/22 04:51:28;;;;;;;0.00;0.00;;;17.60;84.20;;;;;;5030812;28;20034;-70
2023/08/22 04:53:54;;;;;;;0.00;0.00;;;17.50;84.20;;;;;;5030482;28;20041;-70
2023/08/22 04:56:21;;;;;;;0.00;0.00;;;17.50;84.20;;;;;;5031096;28;20045;-70
2023/08/22 04:58:46;;;;;;;0.00;0.00;;;17.50;84.20;;;;;;5028264;28;20061;-69
2023/08/22 05:01:12;;;;;;;0.00;0.00;;;17.50;84.20;;;;;;5032286;28;20134;-68
2023/08/22 05:03:38;;;;;;;0.00;0.00;;;17.50;84.20;;;;;;5028576;28;20487;-68
2023/08/22 05:06:03;;;;;;;0.00;0.00;;;17.50;84.30;;;;;;5029400;28;20079;-69
2023/08/22 05:08:29;;;;;;;0.00;0.00;;;17.50;84.40;;;;;;5030637;28;20076;-70
2023/08/22 05:10:55;;;;;;;0.00;0.00;;;17.50;84.40;;;;;;5029111;28;20034;-70
2023/08/22 05:13:20;;;;;;;0.00;0.00;;;17.50;84.40;;;;;;5029239;28;20058;-70
2023/08/22 05:15:46;;;;;;;0.00;0.00;;;17.50;84.60;;;;;;5030137;28;20406;-69
2023/08/22 05:18:11;;;;;;;0.00;0.00;;;17.50;84.70;;;;;;5029758;28;20045;-69
2023/08/22 05:20:40;;;;;;;0.00;0.00;;;17.50;84.70;;;;;;5025384;28;20766;-71
2023/08/22 05:23:05;;;;;;;0.00;0.00;;;17.50;84.80;;;;;;5028628;28;20463;-69
2023/08/22 05:25:31;;;;;;;0.00;0.00;;;17.60;84.70;;;;;;5029302;28;20124;-69
2023/08/22 05:27:57;;;;;;;0.00;0.00;;;17.50;84.80;;;;;;5027593;28;20067;-69
2023/08/22 05:30:22;;;;;;;0.00;0.00;;;17.60;84.90;;;;;;5030695;28;20424;-69
2023/08/22 05:32:48;;;;;;;0.00;0.00;;;17.60;84.80;;;;;;5029588;28;20037;-69
2023/08/22 05:35:14;;;;;;;0.00;0.00;;;17.60;85.00;;;;;;5029922;28;20041;-68
2023/08/22 05:37:39;;;;;;;0.00;0.00;;;17.70;85.10;;;;;;5030874;28;20037;-70
2023/08/22 05:40:07;;;;;;;0.00;0.00;;;17.80;85.10;;;;;;5026709;28;20591;-71
2023/08/22 05:42:33;;;;;;;0.00;0.00;;;17.80;85.20;;;;;;5029526;28;20409;-69
2023/08/22 05:44:58;;;;;;;0.00;0.00;;;17.80;85.10;;;;;;5027556;28;20050;-69
2023/08/22 05:47:24;;;;;;;0.00;0.00;;;17.90;85.20;;;;;;5010788;28;20067;-69
2023/08/22 05:49:50;;;;;;;0.00;0.00;;;17.90;85.30;;;;;;5030296;28;20053;-69
2023/08/22 05:52:15;;;;;;;0.00;0.00;;;17.90;85.10;;;;;;5031437;28;20053;-69
2023/08/22 05:54:41;;;;;;;0.00;0.00;;;18.00;85.10;;;;;;5029596;28;20057;-69
2023/08/22 05:57:07;;;;;;;0.00;0.00;;;18.00;85.10;;;;;;5031753;28;20431;-69
2023/08/22 05:59:32;;;;;;;0.00;0.00;;;18.10;85.10;;;;;;5031269;28;20053;-70
2023/08/22 06:01:58;;;;;;;0.00;0.00;;;18.10;85.20;;;;;;5031654;28;20053;-69
2023/08/22 06:04:25;;;;;;;0.00;0.00;;;18.20;85.30;;;;;;5013968;28;20080;-69
2023/08/22 06:06:50;;;;;;;0.00;0.00;;;18.20;85.30;;;;;;5031746;28;20049;-69
2023/08/22 06:09:16;;;;;;;0.00;0.00;;;18.30;85.30;;;;;;5029104;28;20059;-73
2023/08/22 06:11:42;;;;;;;0.00;0.00;;;18.30;85.30;;;;;;5030171;28;20053;-68
2023/08/22 06:14:08;;;;;;;0.00;0.00;;;18.30;85.30;;;;;;5030270;28;20045;-71
2023/08/22 06:16:33;;;;;;;0.00;0.00;;;18.40;85.20;;;;;;5028299;28;20049;-70
2023/08/22 06:19:00;;;;;;;0.00;0.00;;;18.40;85.20;;;;;;5030159;28;20046;-69
2023/08/22 06:21:26;;;;;;;0.00;0.00;;;18.40;85.10;;;;;;5032346;28;20124;-69
2023/08/22 06:23:52;;;;;;;0.00;0.00;;;18.50;85.20;;;;;;5015351;28;20471;-69
2023/08/22 06:26:19;;;;;;;0.00;0.00;;;18.50;85.20;;;;;;5017574;28;20049;-69
2023/08/22 06:28:46;;;;;;;0.00;0.00;;;18.60;85.20;;;;;;5033091;28;20061;-69
2023/08/22 06:31:12;;;;;;;0.00;0.00;;;18.60;85.10;;;;;;5031784;28;20049;-69
2023/08/22 06:33:37;;;;;;;0.00;0.00;;;18.70;84.90;;;;;;5032105;28;20072;-69
2023/08/22 06:36:04;;;;;;;0.00;0.00;;;18.80;85.00;;;;;;5033015;28;20388;-69
2023/08/22 06:38:29;;;;;;;0.00;0.00;;;18.80;84.90;;;;;;5033295;28;20053;-68
2023/08/22 06:40:55;;;;;;;0.00;0.00;;;18.90;84.70;;;;;;5033038;28;20523;-69
2023/08/22 06:43:22;;;;;;;0.00;0.00;;;18.90;84.60;;;;;;5032339;28;20041;-69
2023/08/22 06:45:48;;;;;;;0.00;0.00;;;18.90;84.50;;;;;;5013891;28;20053;-70
2023/08/22 06:48:13;;;;;;;0.00;0.00;;;18.90;84.30;;;;;;5015807;28;20052;-68
2023/08/22 06:50:39;;;;;;;0.00;0.00;;;18.90;84.40;;;;;;5016071;28;20050;-68
2023/08/22 06:53:04;;;;;;;0.00;0.00;;;18.90;84.40;;;;;;5020775;28;20087;-69
2023/08/22 06:55:30;;;;;;;0.00;0.00;;;19.00;84.40;;;;;;5031711;28;20048;-69
2023/08/22 06:57:56;;;;;;;0.00;0.00;;;19.00;84.40;;;;;;5028677;28;20041;-69
2023/08/22 07:00:21;;;;;;;0.00;0.00;;;19.30;85.90;;;;;;5031357;28;20081;-69
2023/08/22 07:02:47;;;;;;;0.00;0.00;;;19.50;86.00;;;;;;5025617;28;20052;-69
2023/08/22 07:05:15;;;;;;;0.00;0.00;;;19.80;85.20;;;;;;5015046;28;20056;-69
2023/08/22 07:07:41;;;;;;;0.00;0.00;;;19.90;84.50;;;;;;5013263;28;20041;-68
2023/08/22 07:10:09;;;;;;;0.00;0.00;;;19.80;83.90;;;;;;5021997;28;20056;-68
2023/08/22 07:12:35;;;;;;;0.00;0.00;;;19.80;83.70;;;;;;5026429;28;20398;-68
2023/08/22 07:15:04;;;;;;;0.63;0.32;;;19.80;83.60;;;;;;5034715;28;20090;-68
2023/08/22 07:17:30;;;;;;;0.00;0.00;;;19.70;83.50;;;;;;5018544;28;20041;-68
2023/08/22 07:19:55;;;;;;;0.03;0.03;;;19.70;83.50;;;;;;5013641;28;20057;-67
2023/08/22 07:22:21;;;;;;;0.00;0.00;;;19.60;83.00;;;;;;5018445;28;20137;-68
2023/08/22 07:24:47;;;;;;;0.00;0.00;;;19.60;82.90;;;;;;5014738;28;20050;-68
2023/08/22 07:27:14;;;;;;;0.10;0.10;;;19.50;83.00;;;;;;5016803;28;20542;-67
2023/08/22 07:29:39;;;;;;;0.00;0.00;;;19.50;83.00;;;;;;5024344;28;20129;-68
2023/08/22 07:32:07;;;;;;;4.10;0.77;;;19.60;82.90;;;;;;5025371;28;20129;-68
2023/08/22 07:34:33;;;;;;;0.00;0.00;;;19.60;83.20;;;;;;5020857;28;20399;-67
2023/08/22 07:36:58;;;;;;;0.00;0.00;;;19.50;83.20;;;;;;5022320;28;20072;-67
2023/08/22 07:39:24;;;;;;;0.00;0.00;;;19.60;83.40;;;;;;5022058;28;20063;-67
2023/08/22 07:41:50;;;;;;;0.00;0.00;;;19.60;83.10;;;;;;5013595;28;20060;-68
2023/08/22 07:44:15;;;;;;;0.00;0.00;;;19.60;83.60;;;;;;5011985;28;20112;-69
2023/08/22 07:46:41;;;;;;;0.00;0.00;;;19.60;83.60;;;;;;5013666;28;20095;-68
2023/08/22 07:49:07;;;;;;;0.00;0.00;;;19.60;83.40;;;;;;5019080;28;20132;-67
2023/08/22 07:51:34;;;;;;;0.00;0.00;;;19.60;83.50;;;;;;5013870;28;20499;-68
2023/08/22 07:54:01;;;;;;;0.40;0.40;;;19.70;83.70;;;;;;5018427;28;20062;-69
2023/08/22 07:56:27;;;;;;;0.00;0.00;;;19.70;83.80;;;;;;5042028;28;20077;-68
2023/08/22 07:58:52;;;;;;;0.00;0.00;;;19.80;83.70;;;;;;5015013;28;20637;-67
2023/08/22 08:01:18;;;;;;;0.00;0.00;;;19.80;83.60;;;;;;5016031;28;20038;-67
2023/08/22 08:03:44;;;;;;;0.00;0.00;;;19.90;83.90;;;;;;5014032;28;20057;-68
2023/08/22 08:06:09;;;;;;;0.22;0.22;;;20.00;83.90;;;;;;5006247;28;20085;-67
2023/08/22 08:08:35;;;;;;;0.00;0.00;;;20.00;83.60;;;;;;5010749;28;20046;-71
2023/08/22 08:11:01;;;;;;;0.00;0.00;;;20.10;83.60;;;;;;5011316;28;20045;-67
2023/08/22 08:13:26;;;;;;;0.00;0.00;;;20.10;83.70;;;;;;5009379;28;20053;-68
2023/08/22 08:15:52;;;;;;;0.10;0.10;;;20.20;83.60;;;;;;5011022;28;20041;-68
2023/08/22 08:18:18;;;;;;;0.00;0.00;;;20.30;83.30;;;;;;5010323;28;20081;-68
2023/08/22 08:20:43;;;;;;;0.00;0.00;;;20.50;83.20;;;;;;5011405;28;20060;-68
2023/08/22 08:23:10;;;;;;;0.00;0.00;;;20.50;83.20;;;;;;5012908;28;20107;-68
2023/08/22 08:25:36;;;;;;;0.00;0.00;;;20.70;83.10;;;;;;5011325;28;20038;-67
2023/08/22 08:28:02;;;;;;;0.00;0.00;;;20.80;82.90;;;;;;5012339;28;20042;-68
2023/08/22 08:30:28;;;;;;;0.00;0.00;;;20.90;82.90;;;;;;5028983;28;20115;-68
2023/08/22 08:32:54;;;;;;;0.05;0.05;;;21.00;82.90;;;;;;5014595;28;20120;-68
2023/08/22 08:35:19;;;;;;;0.00;0.00;;;21.00;82.80;;;;;;5011803;28;20061;-67
2023/08/22 08:37:46;;;;;;;0.00;0.00;;;21.10;82.70;;;;;;5011194;28;20038;-70
2023/08/22 08:40:12;;;;;;;0.10;0.10;;;21.20;82.00;;;;;;5017436;28;20061;-67
2023/08/22 08:42:38;;;;;;;2.00;0.55;;;21.30;82.10;;;;;;5012690;28;20045;-68
2023/08/22 08:45:07;;;;;;;0.00;0.00;;;21.20;80.70;;;;;;5010578;28;20054;-68
2023/08/22 08:47:34;;;;;;;0.10;0.10;;;21.20;80.90;;;;;;5011810;28;20038;-69
2023/08/22 08:50:01;;;;;;;0.00;0.00;;;21.20;80.20;;;;;;5010970;28;20050;-69
2023/08/22 08:52:27;;;;;;;0.00;0.00;;;21.20;80.80;;;;;;5013222;28;20050;-69
2023/08/22 08:54:59;;;;;;;0.00;0.00;;;21.20;81.10;;;;;;5012097;28;20054;-68
2023/08/22 08:57:26;;;;;;;2.65;1.15;;;21.20;80.60;;;;;;5005425;28;20562;-69
2023/08/22 08:59:52;;;;;;;0.00;0.00;;;21.20;80.50;;;;;;5011266;28;20181;-68
2023/08/22 09:02:19;;;;;;;0.00;0.00;;;21.00;80.60;;;;;;5013888;28;20050;-69
2023/08/22 09:04:45;;;;;;;0.00;0.00;;;21.10;80.80;;;;;;5024497;28;20085;-68
2023/08/22 09:07:11;;;;;;;0.00;0.00;;;21.00;81.00;;;;;;5011445;28;20046;-69
2023/08/22 09:09:37;;;;;;;0.00;0.00;;;21.00;81.10;;;;;;5011297;28;20423;-68
2023/08/22 09:12:08;;;;;;;0.08;0.08;;;20.90;80.90;;;;;;5011701;28;20467;-68
2023/08/22 09:14:39;;;;;;;0.00;0.00;;;20.90;80.90;;;;;;5028212;28;20523;-68
2023/08/22 09:17:05;;;;;;;;;;;20.80;81.10;;;;;;5011350;28;20100;-69
2023/08/22 09:19:32;;;;;;;2.83;1.33;;;21.00;81.70;;;;;;5012826;28;20363;-68
2023/08/22 09:22:03;;;;;;;0.00;0.00;;;21.10;81.80;;;;;;5011661;28;20049;-68
2023/08/22 09:24:30;;;;;;;0.00;0.00;;;21.10;81.50;;;;;;5011025;28;20471;-69
2023/08/22 09:26:56;;;;;;;0.00;0.00;;;21.20;81.60;;;;;;5001151;28;20506;-69
2023/08/22 09:29:29;;;;;;;0.00;0.00;;;21.30;81.70;;;;;;5015714;28;20418;-68
2023/08/22 09:32:05;;;;;;;0.05;0.05;;;21.50;81.90;;;;;;5033362;28;20060;-68
2023/08/22 09:34:32;;;;;;;0.00;0.00;;;21.50;81.50;;;;;;5033149;28;20453;-70
2023/08/22 09:36:57;;;;;;;0.15;0.15;;;21.60;81.40;;;;;;5032949;28;20045;-68
2023/08/22 09:39:24;;;;;;;0.00;0.00;;;21.50;80.70;;;;;;5033412;28;20049;-70
2023/08/22 09:41:58;;;;;;;0.00;0.00;;;21.50;80.10;;;;;;5034483;28;20080;-68
2023/08/22 09:44:25;;;;;;;0.00;0.00;;;21.50;80.30;;;;;;5033355;28;20092;-68
2023/08/22 09:46:56;;;;;;;0.00;0.00;;;21.50;80.50;;;;;;5033253;28;20049;-68
2023/08/22 09:49:23;;;;;;;0.00;0.00;;;21.60;80.70;;;;;;5033048;28;20053;-68
2023/08/22 09:51:53;;;;;;;0.00;0.00;;;21.80;80.60;;;;;;5033093;28;20045;-68
2023/08/22 09:54:19;;;;;;;0.10;0.10;;;21.80;80.50;;;;;;5032902;28;20456;-71
2023/08/22 09:56:45;;;;;;;0.00;0.00;;;21.80;80.00;;;;;;5034269;28;20069;-69
2023/08/22 09:59:15;;;;;;;0.15;0.15;;;21.80;80.10;;;;;;5032869;28;20509;-69
2023/08/22 10:01:42;;;;;;;0.00;0.00;;;21.80;79.80;;;;;;5033039;28;20406;-68
2023/08/22 10:04:08;;;;;;;0.00;0.00;;;21.80;79.40;;;;;;5032915;28;20525;-69
2023/08/22 10:06:35;;;;;;;0.05;0.05;;;21.90;79.30;;;;;;5032591;28;20046;-68
2023/08/22 10:09:11;;;;;;;0.00;0.00;;;22.00;79.00;;;;;;5032485;28;20041;-70
2023/08/22 10:11:48;;;;;;;0.10;0.10;;;22.00;78.30;;;;;;5033904;28;20049;-68
2023/08/22 10:14:31;;;;;;;0.00;0.00;;;21.90;77.20;;;;;;5032669;28;20041;-68
2023/08/22 10:16:58;;;;;;;0.20;0.20;;;21.90;77.90;;;;;;5032534;28;20056;-68
2023/08/22 10:19:25;;;;;;;0.05;0.05;;;21.80;78.30;;;;;;5032583;28;20502;-68
2023/08/22 10:21:53;;;;;;;0.03;0.03;;;21.80;77.30;;;;;;5032615;28;20053;-69
2023/08/22 10:24:21;;;;;;;0.00;0.00;;;21.80;78.00;;;;;;5032527;28;20033;-68
2023/08/22 10:27:00;;;;;;;0.00;0.00;;;21.90;78.40;;;;;;5032271;28;20128;-70
2023/08/22 10:29:33;;;;;;;0.00;0.00;;;22.00;78.60;;;;;;5032284;28;20517;-68
2023/08/22 10:32:02;;;;;;;0.10;0.10;;;22.00;78.50;;;;;;5032394;28;20089;-68
2023/08/22 10:34:51;;;;;;;3.00;1.08;;;22.00;79.00;;;;;;5032524;28;20041;-70
2023/08/22 10:37:18;;;;;;;0.00;0.00;;;22.10;78.10;;;;;;5023138;28;20060;-69
2023/08/22 10:39:44;;;;;;;0.00;0.00;;;22.20;77.60;;;;;;5033167;28;20441;-69
2023/08/22 10:42:13;;;;;;;0.85;0.43;;;22.20;77.20;;;;;;5031892;28;20041;-69
2023/08/22 10:44:47;;;;;;;0.00;0.00;;;22.30;76.90;;;;;;5032045;28;20052;-69
2023/08/22 10:47:17;;;;;;;0.00;0.00;;;22.30;75.80;;;;;;5032998;28;20041;-69
2023/08/22 10:49:47;;;;;;;0.00;0.00;;;22.40;75.40;;;;;;5032004;28;20375;-68
2023/08/22 10:52:13;;;;;;;0.00;0.00;;;22.50;76.20;;;;;;5032116;28;20095;-69
2023/08/22 10:54:57;;;;;;;0.00;0.00;;;22.50;76.40;;;;;;5032099;28;20052;-68
2023/08/22 10:57:25;;;;;;;0.00;0.00;;;22.60;75.90;;;;;;5031709;28;20499;-70
2023/08/22 11:02:33;;;;;;;0.00;0.00;;;22.80;76.10;;;;;;5107148;22;20397;-70
2023/08/22 11:05:00;;;;;;;0.00;0.00;;;22.80;76.10;;;;;;5051414;28;20482;-70
2023/08/22 11:07:27;;;;;;;0.00;0.00;;;22.90;76.10;;;;;;5051661;28;20056;-70
2023/08/22 11:09:57;;;;;;;0.00;0.00;;;23.00;76.30;;;;;;5052621;28;20036;-71
2023/08/22 11:12:24;;;;;;;0.10;0.10;;;23.10;75.10;;;;;;5051797;28;20079;-70
2023/08/22 11:14:52;;;;;;;0.00;0.00;;;23.30;75.90;;;;;;5051570;28;20055;-70
2023/08/22 11:17:19;;;;;;;0.20;0.20;;;23.50;76.00;;;;;;5051108;28;20051;-68
2023/08/22 11:19:46;;;;;;;0.08;0.08;;;23.40;74.60;;;;;;5051654;28;20079;-70
2023/08/22 11:22:12;;;;;;;0.00;0.00;;;23.30;74.00;;;;;;5034912;28;20052;-68
2023/08/22 11:24:45;;;;;;;0.00;0.00;;;23.20;74.30;;;;;;5052507;28;20379;-69
2023/08/22 11:27:15;;;;;;;0.25;0.25;;;23.10;74.10;;;;;;5051131;28;20486;-70
2023/08/22 11:29:43;;;;;;;0.00;0.00;;;23.10;74.60;;;;;;5034763;28;20049;-71
2023/08/22 11:32:21;;;;;;;0.00;0.00;;;23.10;74.40;;;;;;5050926;28;20045;-70
2023/08/22 11:34:49;;;;;;;0.00;0.00;;;23.00;74.00;;;;;;5050912;28;20355;-71
2023/08/22 11:37:15;;;;;;;0.35;0.35;;;23.10;73.70;;;;;;5050858;28;20041;-71
2023/08/22 11:39:46;;;;;;;0.00;0.00;;;23.10;73.60;;;;;;5052354;28;20079;-70
2023/08/22 11:42:13;;;;;;;0.00;0.00;;;23.10;73.30;;;;;;5051160;28;20481;-70
2023/08/22 11:44:59;;;;;;;0.00;0.00;;;23.20;72.80;;;;;;5051071;28;20041;-71
2023/08/22 11:47:39;;;;;;;0.03;0.03;;;23.20;72.30;;;;;;5050766;28;20538;-71
2023/08/22 11:50:06;;;;;;;0.20;0.20;;;23.30;71.30;;;;;;5050148;28;20041;-70
2023/08/22 11:52:32;;;;;;;0.00;0.00;;;23.40;70.20;;;;;;5051186;28;20048;-68
2023/08/22 11:55:06;;;;;;;0.10;0.10;;;23.50;70.20;;;;;;5050493;28;20398;-68
2023/08/22 11:57:33;;;;;;;0.00;0.00;;;23.50;70.20;;;;;;5050735;28;20083;-69
2023/08/22 12:00:01;;;;;;;0.30;0.30;;;23.70;69.90;;;;;;5050865;28;20056;-68
2023/08/22 12:02:27;;;;;;;0.00;0.00;;;23.80;70.20;;;;;;5050533;28;20049;-69
2023/08/22 12:04:55;;;;;;;0.00;0.00;;;23.90;69.70;;;;;;5050868;28;20056;-69
2023/08/22 12:07:22;;;;;;;0.00;0.00;;;24.00;69.20;;;;;;5052112;28;20049;-69
2023/08/22 12:09:58;;;;;;;0.00;0.00;;;24.10;69.70;;;;;;5050784;28;20116;-70
2023/08/22 12:12:24;;;;;;;0.00;0.00;;;24.20;67.80;;;;;;5050616;28;20055;-71
2023/08/22 12:14:50;;;;;;;0.20;0.20;;;24.20;67.30;;;;;;5051540;28;20049;-71
2023/08/22 12:17:16;;;;;;;0.55;0.55;;;24.30;67.70;;;;;;5051508;28;20103;-70
2023/08/22 12:19:43;;;;;;;0.45;0.45;;;24.10;66.60;;;;;;5050355;28;20049;-70
2023/08/22 12:22:09;;;;;;;0.10;0.10;;;24.30;66.10;;;;;;5050431;28;20049;-69
2023/08/22 12:24:34;;;;;;;0.00;0.00;;;24.20;67.50;;;;;;5051125;28;20044;-70
2023/08/22 12:27:00;;;;;;;0.00;0.00;;;24.20;68.20;;;;;;5050281;28;20052;-71
2023/08/22 12:29:25;;;;;;;0.00;0.00;;;24.20;65.80;;;;;;5051771;28;20045;-71
2023/08/22 12:31:51;;;;;;;13.25;2.22;;;24.10;66.40;;;;;;5051426;28;20045;-69
2023/08/22 12:34:17;;;;;;;0.00;0.00;;;23.90;66.50;;;;;;5050235;28;20189;-71
2023/08/22 12:36:42;;;;;;;0.20;0.20;;;23.90;66.80;;;;;;5050206;28;20560;-73
2023/08/22 12:39:12;;;;;;;0.00;0.00;;;23.90;65.70;;;;;;5050335;28;20071;-72
2023/08/22 12:41:40;;;;;;;0.47;0.47;;;24.00;66.10;;;;;;5050412;28;20055;-71
2023/08/22 12:44:06;;;;;;;0.00;0.00;;;24.00;66.30;;;;;;5051242;28;20445;-70
2023/08/22 12:46:31;;;;;;;0.00;0.00;;;23.90;66.40;;;;;;5051034;28;20049;-71
2023/08/22 12:48:57;;;;;;;0.00;0.00;;;23.90;66.90;;;;;;5051136;28;20045;-72